Accueil
METAR-TAF:

METAR-TAF

Aéroports :

Aéroport international de Gibraltar

Gibraltar, Gibraltar

latitude: 36-09N, longitude: 005-21W, altitude: 5 m

Observation

Le bulletin a été fait il y a 1 heure et 17 minutes, à 02:50 UTC
Vent 6 kt de sud
Température 20°C
Humidité 83%
Pression 1015 hPa
Visibilité 10 km ou plus

METAR: LXGB 230250Z AUTO 17006KT 9999 // NCD 20/17 Q1015

Heure: 06:07 (04:07 UTC)

Prévision

Le bulletin a été fait il y a 11 heures et 46 minutes, à 16:21 UTC
Prévision valable du 22 à 18 UTC au 22 à 22 UTC
Vent 10 kt de est
Visibilité 10 km ou plus
pas de nuages en-dessous de 1500 mètres et pas de cumulonimbus.

TAF: LXGB 221621Z 2218/2222 10010KT CAVOK

Observations et prévisions météorologiques de plus de 4000 aéroports (messages METAR et TAF).

Les stations disponibles sont représentées par des disques jaunes et rouges sur la carte.

Passer la souris dessus pour voir le nom de la station.

Cliquer dessus pour voir les observations et prévisions météorologiques.

Pour changer de carte: cliquez sur les boutons verts avec une croix noire pour zoomer, sur le bouton vert avec un tiret pour effectuer un zoom arrière, ou sur les flèches vertes pour les cartes adjacentes.


METAR-TAF: